createdAt,value
2018-07-13T00:00:15.449Z,16.53
2018-07-13T00:02:44.540Z,10.07
2018-07-13T00:05:13.630Z,15.17
2018-07-13T00:07:42.775Z,12.63
2018-07-13T00:10:11.862Z,17.80
2018-07-13T00:12:40.939Z,11.47
2018-07-13T00:15:11.315Z,11.47
2018-07-13T00:17:40.533Z,8.13
2018-07-13T00:20:09.624Z,9.90
2018-07-13T00:22:38.712Z,9.53
2018-07-13T00:25:08.689Z,11.87
2018-07-13T00:27:37.782Z,10.57
2018-07-13T00:30:06.907Z,8.07
2018-07-13T00:32:36.019Z,13.53
2018-07-13T00:35:05.182Z,13.03
2018-07-13T00:37:34.231Z,13.97
2018-07-13T00:40:03.382Z,12.73
2018-07-13T00:42:32.484Z,12.80
2018-07-13T00:45:01.585Z,15.47
2018-07-13T00:47:30.693Z,11.40
2018-07-13T00:49:59.782Z,14.43
2018-07-13T00:52:28.857Z,15.20
2018-07-13T00:54:58.012Z,14.77
2018-07-13T00:57:27.098Z,18.73
2018-07-13T00:59:56.177Z,19.07
2018-07-13T01:02:44.221Z,14.00
2018-07-13T01:05:15.866Z,19.70
2018-07-13T01:07:44.999Z,17.10
2018-07-13T01:10:14.130Z,18.10
2018-07-13T01:12:43.238Z,16.73
2018-07-13T01:15:12.817Z,14.53
2018-07-13T01:17:42.051Z,13.10
2018-07-13T01:20:11.156Z,14.37
2018-07-13T01:22:40.386Z,13.60
2018-07-13T01:25:09.576Z,12.23
2018-07-13T01:27:38.673Z,16.13
2018-07-13T01:30:07.951Z,17.63
2018-07-13T01:32:37.235Z,11.07
2018-07-13T01:35:06.342Z,11.77
2018-07-13T01:37:35.466Z,16.93
2018-07-13T01:40:04.590Z,16.70
2018-07-13T01:42:33.728Z,16.83
2018-07-13T01:45:02.820Z,13.27
2018-07-13T01:47:31.921Z,13.50
2018-07-13T01:50:01.013Z,15.20
2018-07-13T01:52:30.116Z,11.10
2018-07-13T01:54:59.177Z,11.80
2018-07-13T01:57:28.257Z,13.17
2018-07-13T01:59:57.357Z,16.03
2018-07-13T02:02:26.523Z,12.37
2018-07-13T02:04:55.623Z,15.60
2018-07-13T02:07:24.729Z,18.33
2018-07-13T02:09:55.106Z,15.70
2018-07-13T02:12:24.212Z,14.37
2018-07-13T02:14:53.587Z,14.23
2018-07-13T02:17:23.079Z,12.40
2018-07-13T02:19:56.257Z,16.20
2018-07-13T02:22:25.671Z,11.70
2018-07-13T02:24:54.793Z,16.10
2018-07-13T02:27:23.854Z,17.47
2018-07-13T02:29:52.920Z,15.53
2018-07-13T02:32:22.020Z,14.67
2018-07-13T02:34:51.077Z,16.40
2018-07-13T02:37:20.164Z,15.83
2018-07-13T02:39:49.231Z,15.80
2018-07-13T02:42:18.346Z,19.93
2018-07-13T02:44:47.460Z,15.40
2018-07-13T02:47:16.561Z,15.10
2018-07-13T02:49:45.661Z,15.40
2018-07-13T02:52:14.776Z,14.37
2018-07-13T02:54:43.875Z,15.70
2018-07-13T02:57:13.003Z,14.33
2018-07-13T02:59:42.103Z,16.93
2018-07-13T03:02:11.224Z,14.70
2018-07-13T03:04:40.301Z,12.40
2018-07-13T03:07:09.383Z,14.67
2018-07-13T03:09:38.445Z,12.57
2018-07-13T03:12:07.562Z,13.60
2018-07-13T03:14:36.683Z,14.03
2018-07-13T03:17:05.783Z,15.23
2018-07-13T03:19:34.896Z,16.77
2018-07-13T03:22:04.062Z,16.97
2018-07-13T03:24:33.175Z,15.40
2018-07-13T03:27:02.329Z,17.47
2018-07-13T03:29:31.479Z,17.63
2018-07-13T03:32:00.607Z,18.97
2018-07-13T03:34:29.775Z,15.13
2018-07-13T03:36:58.845Z,14.67
2018-07-13T03:41:50.043Z,15.90
2018-07-13T03:44:19.123Z,19.00
2018-07-13T03:46:48.342Z,18.23
2018-07-13T03:49:17.445Z,18.73
2018-07-13T03:51:46.532Z,15.73
2018-07-13T03:54:15.733Z,16.60
2018-07-13T03:56:44.782Z,16.27
2018-07-13T03:59:13.837Z,16.10
2018-07-13T04:01:43.125Z,15.57
2018-07-13T04:04:12.237Z,19.17
2018-07-13T04:06:41.300Z,15.83
2018-07-13T04:09:11.339Z,17.17
2018-07-13T04:11:40.496Z,18.30
2018-07-13T04:14:09.965Z,13.20
2018-07-13T04:16:39.096Z,15.40
2018-07-13T04:19:08.198Z,15.00
2018-07-13T04:21:37.281Z,22.73
2018-07-13T04:24:06.435Z,14.43
2018-07-13T04:26:35.595Z,15.97
2018-07-13T04:29:04.730Z,18.00
2018-07-13T04:31:33.876Z,21.23
2018-07-13T04:34:02.996Z,21.53
2018-07-13T04:36:32.092Z,15.77
2018-07-13T04:39:01.139Z,16.93
2018-07-13T04:41:30.229Z,20.13
2018-07-13T04:43:59.333Z,16.80
2018-07-13T04:46:28.449Z,15.83
2018-07-13T04:48:57.581Z,13.83
2018-07-13T04:51:26.705Z,18.43
2018-07-13T04:53:55.792Z,21.17
2018-07-13T04:56:24.906Z,18.17
2018-07-13T04:58:54.063Z,26.67
2018-07-13T05:01:23.205Z,18.37
2018-07-13T05:03:52.406Z,21.73
2018-07-13T05:06:21.599Z,20.20
2018-07-13T05:08:50.671Z,16.43
2018-07-13T05:11:19.798Z,19.37
2018-07-13T05:13:48.921Z,14.87
2018-07-13T05:16:18.081Z,20.80
2018-07-13T05:18:47.315Z,23.13
2018-07-13T05:21:16.439Z,16.47
2018-07-13T05:23:45.583Z,18.83
2018-07-13T05:26:15.397Z,16.80
2018-07-13T05:28:44.475Z,20.40
2018-07-13T05:31:14.156Z,19.07
2018-07-13T05:33:43.565Z,19.03
2018-07-13T05:36:12.970Z,18.80
2018-07-13T05:38:42.892Z,17.30
2018-07-13T05:41:13.870Z,19.00
2018-07-13T05:43:43.907Z,18.40
2018-07-13T05:46:14.106Z,22.53
2018-07-13T05:48:43.333Z,23.07
2018-07-13T05:51:13.212Z,22.83
2018-07-13T05:53:43.072Z,20.03
2018-07-13T05:56:13.311Z,22.93
2018-07-13T05:58:43.742Z,22.50
2018-07-13T06:01:13.765Z,21.27
2018-07-13T06:03:44.167Z,22.13
2018-07-13T06:06:15.493Z,17.73
2018-07-13T06:08:45.014Z,18.43
2018-07-13T06:11:15.470Z,21.73
2018-07-13T06:13:44.600Z,21.70
2018-07-13T06:16:14.077Z,15.10
2018-07-13T06:18:43.183Z,17.67
2018-07-13T06:21:12.287Z,18.40
2018-07-13T06:23:41.394Z,14.93
2018-07-13T06:26:10.495Z,19.73
2018-07-13T06:28:39.590Z,16.40
2018-07-13T06:31:08.908Z,18.17
2018-07-13T06:33:38.000Z,18.40
2018-07-13T06:36:07.148Z,16.23
2018-07-13T06:38:36.309Z,23.43
2018-07-13T06:41:05.462Z,20.27
2018-07-13T06:43:34.569Z,24.63
2018-07-13T06:46:03.673Z,17.27
2018-07-13T06:48:32.821Z,21.87
2018-07-13T06:51:01.895Z,15.77
2018-07-13T06:53:31.010Z,20.00
2018-07-13T06:56:00.090Z,19.37
2018-07-13T06:58:40.439Z,21.50
2018-07-13T07:01:09.970Z,15.97
2018-07-13T07:04:47.934Z,17.67
2018-07-13T07:07:19.601Z,16.40
2018-07-13T07:09:50.009Z,14.60
2018-07-13T07:13:03.126Z,11.80
2018-07-13T07:15:32.226Z,14.53
2018-07-13T07:18:01.357Z,11.03
2018-07-13T07:20:30.460Z,11.07
2018-07-13T07:22:59.596Z,13.63
2018-07-13T07:25:28.716Z,9.70
2018-07-13T07:27:57.840Z,9.87
2018-07-13T07:30:26.983Z,11.87
2018-07-13T07:32:56.074Z,12.63
2018-07-13T07:35:25.193Z,13.93
2018-07-13T07:37:54.281Z,11.00
2018-07-13T07:40:23.417Z,8.67
2018-07-13T07:42:52.764Z,14.70
2018-07-13T07:45:21.929Z,8.30
2018-07-13T07:47:51.028Z,9.90
2018-07-13T07:50:20.123Z,8.70
2018-07-13T07:52:49.274Z,8.07
2018-07-13T07:55:18.405Z,8.97
2018-07-13T07:57:47.461Z,8.40
2018-07-13T08:00:16.563Z,7.20
2018-07-13T08:02:45.632Z,11.93
2018-07-13T08:05:14.725Z,7.70
2018-07-13T08:07:43.832Z,10.40
2018-07-13T08:10:12.922Z,7.67
2018-07-13T08:12:42.049Z,6.50
2018-07-13T08:15:11.154Z,8.23
2018-07-13T08:17:40.286Z,10.77
2018-07-13T08:20:09.405Z,6.73
2018-07-13T08:22:45.723Z,9.07
2018-07-13T08:25:15.298Z,8.63
2018-07-13T08:27:50.652Z,8.80
2018-07-13T08:30:31.176Z,10.23
2018-07-13T08:33:00.274Z,12.47
2018-07-13T08:35:29.312Z,9.40
2018-07-13T08:37:58.395Z,9.77
2018-07-13T08:40:27.517Z,10.37
2018-07-13T08:42:56.679Z,9.57
2018-07-13T08:45:25.793Z,9.83
2018-07-13T08:47:54.920Z,10.30
2018-07-13T08:50:24.028Z,10.80
2018-07-13T08:52:53.433Z,9.87
2018-07-13T08:55:22.567Z,8.13
2018-07-13T08:57:51.730Z,11.87
2018-07-13T09:00:20.960Z,10.97
2018-07-13T09:02:50.015Z,24.80
2018-07-13T09:05:19.150Z,16.23
2018-07-13T09:07:48.236Z,21.30
2018-07-13T09:10:17.399Z,18.00
2018-07-13T09:12:46.495Z,15.70
2018-07-13T09:15:15.633Z,13.90
2018-07-13T09:17:44.714Z,17.77
2018-07-13T09:20:14.371Z,14.90
2018-07-13T09:22:43.539Z,14.53
2018-07-13T09:25:12.961Z,13.07
2018-07-13T09:27:42.220Z,20.77
2018-07-13T09:30:12.186Z,21.27
2018-07-13T09:32:41.491Z,20.83
2018-07-13T09:35:10.749Z,17.00
2018-07-13T09:37:40.138Z,22.27
2018-07-13T09:40:09.291Z,22.53
2018-07-13T09:42:38.398Z,23.00
2018-07-13T09:45:07.506Z,18.57
2018-07-13T09:47:37.264Z,17.33
2018-07-13T09:50:06.703Z,12.27
2018-07-13T09:52:35.815Z,18.53
2018-07-13T09:55:04.957Z,18.63
2018-07-13T09:57:34.077Z,14.37
2018-07-13T10:00:03.204Z,16.00
2018-07-13T10:02:32.322Z,18.67
2018-07-13T10:05:01.443Z,14.83
2018-07-13T10:07:30.539Z,13.50
2018-07-13T10:09:59.710Z,12.83
2018-07-13T10:12:28.816Z,12.27
2018-07-13T10:14:57.979Z,18.07
2018-07-13T10:17:27.117Z,13.63
2018-07-13T10:19:56.226Z,15.63
2018-07-13T10:22:28.141Z,9.87
2018-07-13T10:24:59.754Z,13.83
2018-07-13T10:27:32.520Z,12.17
2018-07-13T10:30:02.875Z,15.53
2018-07-13T10:32:32.293Z,14.07
2018-07-13T10:35:02.546Z,11.97
2018-07-13T10:37:32.730Z,12.23
2018-07-13T10:40:01.858Z,14.60
2018-07-13T10:42:30.994Z,11.67
2018-07-13T10:45:00.093Z,16.97
2018-07-13T10:47:29.216Z,11.43
2018-07-13T10:49:58.282Z,13.53
2018-07-13T10:52:27.460Z,12.20
2018-07-13T10:54:56.573Z,10.10
2018-07-13T10:57:25.694Z,11.80
2018-07-13T10:59:54.779Z,11.47
2018-07-13T11:02:23.907Z,11.37
2018-07-13T11:04:52.988Z,9.67
2018-07-13T11:07:22.066Z,9.40
2018-07-13T11:09:51.180Z,6.97
2018-07-13T11:12:20.300Z,9.33
2018-07-13T11:14:49.403Z,6.43
2018-07-13T11:17:18.662Z,9.63
2018-07-13T11:19:47.763Z,8.33
2018-07-13T11:22:17.018Z,10.13
2018-07-13T11:24:46.736Z,9.27
2018-07-13T11:27:15.811Z,9.53
2018-07-13T11:29:44.915Z,9.40
2018-07-13T11:32:14.027Z,8.53
2018-07-13T11:34:43.115Z,9.23
2018-07-13T11:37:12.602Z,6.90
2018-07-13T11:39:41.493Z,10.17
2018-07-13T11:42:10.647Z,7.70
2018-07-13T11:44:39.845Z,7.30
2018-07-13T11:47:09.090Z,6.47
2018-07-13T11:49:38.174Z,7.73
2018-07-13T11:52:07.351Z,5.20
2018-07-13T11:54:36.416Z,6.97
2018-07-13T11:57:05.498Z,5.28
2018-07-13T11:59:34.607Z,6.83
2018-07-13T12:02:03.674Z,6.45
2018-07-13T12:04:32.774Z,8.53
2018-07-13T12:07:01.871Z,6.55
2018-07-13T12:09:30.956Z,7.12
2018-07-13T12:12:00.038Z,6.47
2018-07-13T12:14:29.234Z,10.93
2018-07-13T12:16:58.389Z,11.75
2018-07-13T12:19:27.586Z,5.75
2018-07-13T12:21:56.682Z,8.13
2018-07-13T12:24:25.762Z,7.97
2018-07-13T12:26:55.813Z,10.23
2018-07-13T12:29:24.847Z,8.08
2018-07-13T12:31:53.922Z,5.92
2018-07-13T12:34:22.969Z,7.78
2018-07-13T12:36:52.052Z,6.67
2018-07-13T12:39:21.294Z,7.00
2018-07-13T12:41:50.576Z,8.20
2018-07-13T12:44:19.644Z,10.45
2018-07-13T12:46:48.728Z,5.22
2018-07-13T12:49:17.929Z,8.18
2018-07-13T12:51:46.995Z,7.47
2018-07-13T12:54:16.273Z,6.33
2018-07-13T12:56:45.332Z,6.15
2018-07-13T12:59:14.404Z,8.20
2018-07-13T13:01:43.458Z,8.68
2018-07-13T13:04:12.541Z,6.22
2018-07-13T13:06:41.849Z,5.80
2018-07-13T13:09:10.924Z,5.12
2018-07-13T13:11:40.013Z,8.05
2018-07-13T13:14:09.114Z,5.65
2018-07-13T13:16:38.197Z,7.22
2018-07-13T13:19:07.289Z,6.40
2018-07-13T13:21:36.468Z,4.17
2018-07-13T13:24:05.444Z,5.33
2018-07-13T13:26:34.541Z,5.42
2018-07-13T13:29:03.609Z,4.17
2018-07-13T13:31:32.709Z,6.03
2018-07-13T13:34:01.765Z,7.53
2018-07-13T13:36:30.867Z,7.28
2018-07-13T13:38:59.921Z,5.22
2018-07-13T13:41:29.054Z,8.28
2018-07-13T13:43:58.121Z,6.65
2018-07-13T13:46:27.283Z,7.33
2018-07-13T13:48:56.391Z,7.37
2018-07-13T13:51:25.432Z,5.20
2018-07-13T13:53:54.527Z,6.00
2018-07-13T13:56:23.629Z,4.95
2018-07-13T13:58:52.888Z,4.53
2018-07-13T14:01:21.968Z,5.62
2018-07-13T14:03:51.089Z,8.68
2018-07-13T14:06:20.159Z,5.90
2018-07-13T14:08:49.233Z,8.53
2018-07-13T14:11:18.537Z,4.28
2018-07-13T14:13:47.619Z,5.85
2018-07-13T14:16:16.704Z,4.22
2018-07-13T14:18:45.781Z,6.10
2018-07-13T14:21:14.898Z,6.35
2018-07-13T14:23:43.958Z,7.67
2018-07-13T14:26:13.143Z,4.35
2018-07-13T14:28:42.227Z,6.08
2018-07-13T14:31:11.341Z,3.47
2018-07-13T14:33:40.453Z,5.62
2018-07-13T14:36:09.572Z,5.20
2018-07-13T14:38:38.703Z,4.97
2018-07-13T14:41:07.807Z,7.47
2018-07-13T14:43:36.951Z,6.05
2018-07-13T14:46:06.050Z,6.70
2018-07-13T14:48:35.166Z,11.18
2018-07-13T14:51:04.207Z,6.08
2018-07-13T14:53:33.384Z,5.50
2018-07-13T14:56:02.431Z,7.05
2018-07-13T14:58:31.574Z,6.33
2018-07-13T15:01:00.680Z,8.60
2018-07-13T15:03:29.775Z,6.40
2018-07-13T15:05:58.919Z,7.97
2018-07-13T15:08:27.923Z,8.83
2018-07-13T15:10:57.022Z,7.58
2018-07-13T15:13:26.121Z,6.03
2018-07-13T15:15:55.191Z,8.50
2018-07-13T15:18:24.296Z,7.08
2018-07-13T15:20:53.393Z,11.63
2018-07-13T15:23:22.444Z,6.70
2018-07-13T15:25:51.507Z,6.03
2018-07-13T15:28:20.590Z,5.00
2018-07-13T15:30:49.695Z,4.53
2018-07-13T15:33:18.765Z,5.45
2018-07-13T15:35:47.868Z,5.55
2018-07-13T15:38:16.927Z,7.53
2018-07-13T15:40:46.106Z,6.33
2018-07-13T15:43:15.219Z,5.87
2018-07-13T15:45:44.383Z,3.52
2018-07-13T15:48:13.433Z,4.12
2018-07-13T15:50:42.479Z,5.60
2018-07-13T15:53:11.604Z,5.55
2018-07-13T15:55:45.912Z,6.58
2018-07-13T15:58:15.039Z,5.40
2018-07-13T16:00:44.285Z,4.58
2018-07-13T16:03:13.334Z,6.30
2018-07-13T16:05:42.537Z,4.72
2018-07-13T16:08:11.625Z,4.33
2018-07-13T16:10:40.723Z,7.05
2018-07-13T16:13:09.957Z,6.95
2018-07-13T16:15:39.001Z,4.90
2018-07-13T16:18:08.151Z,4.83
2018-07-13T16:20:37.209Z,9.05
2018-07-13T16:23:06.591Z,3.92
2018-07-13T16:25:35.754Z,6.50
2018-07-13T16:28:04.865Z,7.37
2018-07-13T16:30:33.979Z,7.15
2018-07-13T16:33:03.044Z,4.53
2018-07-13T16:35:32.111Z,4.45
2018-07-13T16:38:01.195Z,5.20
2018-07-13T16:40:30.370Z,4.95
2018-07-13T16:42:59.456Z,5.42
2018-07-13T16:45:28.572Z,7.37
2018-07-13T16:47:57.634Z,5.65
2018-07-13T16:50:26.810Z,4.72
2018-07-13T16:52:55.902Z,5.08
2018-07-13T16:55:24.991Z,5.33
2018-07-13T16:57:54.063Z,6.35
2018-07-13T17:00:23.339Z,7.20
2018-07-13T17:02:52.447Z,5.58
2018-07-13T17:05:21.530Z,6.62
2018-07-13T17:07:50.752Z,6.08
2018-07-13T17:10:19.832Z,8.18
2018-07-13T17:12:48.874Z,4.37
2018-07-13T17:15:17.977Z,6.10
2018-07-13T17:17:47.055Z,5.47
2018-07-13T17:20:16.165Z,5.22
2018-07-13T17:22:45.429Z,4.20
2018-07-13T17:25:14.792Z,6.97
2018-07-13T17:27:43.950Z,5.85
2018-07-13T17:30:12.995Z,5.70
2018-07-13T17:32:42.095Z,7.55
2018-07-13T17:35:11.286Z,8.18
2018-07-13T17:37:40.376Z,6.33
2018-07-13T17:40:09.630Z,5.58
2018-07-13T17:42:38.755Z,4.33
2018-07-13T17:45:09.804Z,8.18
2018-07-13T17:47:38.875Z,6.05
2018-07-13T17:50:07.999Z,6.20
2018-07-13T17:52:37.152Z,6.53
2018-07-13T17:55:06.255Z,5.20
2018-07-13T17:57:35.383Z,6.08
2018-07-13T18:00:04.614Z,6.42
2018-07-13T18:02:33.703Z,7.03
2018-07-13T18:05:03.258Z,8.00
2018-07-13T18:07:32.441Z,5.72
2018-07-13T18:10:01.499Z,6.60
2018-07-13T18:12:30.787Z,6.28
2018-07-13T18:14:59.909Z,5.40
2018-07-13T18:17:29.148Z,7.35
2018-07-13T18:20:00.038Z,7.72
2018-07-13T18:22:29.492Z,7.20
2018-07-13T18:24:58.588Z,7.97
2018-07-13T18:27:28.553Z,7.08
2018-07-13T18:29:57.889Z,6.15
2018-07-13T18:32:27.013Z,8.28
2018-07-13T18:34:56.125Z,9.78
2018-07-13T18:37:25.335Z,6.10
2018-07-13T18:39:54.429Z,5.35
2018-07-13T18:42:23.672Z,5.53
2018-07-13T18:44:52.999Z,5.80
2018-07-13T18:47:22.985Z,6.75
2018-07-13T18:49:52.153Z,4.80
2018-07-13T18:52:21.417Z,6.50
2018-07-13T18:54:50.522Z,4.90
2018-07-13T18:57:19.618Z,9.45
2018-07-13T18:59:48.731Z,6.72
2018-07-13T19:02:17.881Z,6.10
2018-07-13T19:04:46.971Z,5.72
2018-07-13T19:07:16.149Z,5.87
2018-07-13T19:09:45.263Z,4.35
2018-07-13T19:12:14.336Z,6.47
2018-07-13T19:14:44.297Z,5.60
2018-07-13T19:17:13.405Z,5.22
2018-07-13T19:19:42.491Z,6.05
2018-07-13T19:22:11.585Z,7.62
2018-07-13T19:24:40.681Z,7.85
2018-07-13T19:27:09.911Z,11.57
2018-07-13T19:29:38.982Z,7.25
2018-07-13T19:32:08.077Z,4.62
2018-07-13T19:34:37.190Z,4.28
2018-07-13T19:37:06.562Z,8.03
2018-07-13T19:39:35.692Z,6.42
2018-07-13T19:42:04.817Z,6.50
2018-07-13T19:44:33.923Z,10.13
2018-07-13T19:47:03.015Z,6.22
2018-07-13T19:49:32.086Z,6.10
2018-07-13T19:52:01.223Z,3.85
2018-07-13T19:54:30.465Z,7.33
2018-07-13T19:56:59.781Z,13.38
2018-07-13T19:59:29.039Z,13.17
2018-07-13T20:01:58.783Z,10.85
2018-07-13T20:04:27.887Z,6.20
2018-07-13T20:06:57.005Z,9.80
2018-07-13T20:09:26.105Z,8.27
2018-07-13T20:11:55.201Z,7.53
2018-07-13T20:14:25.244Z,7.00
2018-07-13T20:16:54.359Z,10.32
2018-07-13T20:19:23.482Z,9.50
2018-07-13T20:21:52.578Z,6.10
2018-07-13T20:24:21.690Z,11.10
2018-07-13T20:26:50.781Z,9.05
2018-07-13T20:29:19.875Z,6.50
2018-07-13T20:31:48.952Z,6.62
2018-07-13T20:34:19.250Z,20.97
2018-07-13T20:36:49.601Z,7.50
2018-07-13T20:39:19.771Z,9.43
2018-07-13T20:41:49.883Z,12.33
2018-07-13T20:44:20.112Z,7.95
2018-07-13T20:46:50.219Z,7.63
2018-07-13T20:49:19.410Z,9.73
2018-07-13T20:51:49.277Z,5.43
2018-07-13T20:54:18.565Z,5.93
2018-07-13T20:56:47.563Z,5.80
2018-07-13T20:59:16.671Z,8.10
2018-07-13T21:01:45.834Z,6.73
2018-07-13T21:04:14.941Z,11.50
2018-07-13T21:06:44.043Z,8.53
2018-07-13T21:09:13.116Z,6.80
2018-07-13T21:11:42.291Z,12.33
2018-07-13T21:14:11.865Z,6.00
2018-07-13T21:16:41.001Z,5.77
2018-07-13T21:19:10.089Z,6.70
2018-07-13T21:21:39.177Z,7.80
2018-07-13T21:24:08.266Z,6.93
2018-07-13T21:26:37.721Z,8.40
2018-07-13T21:29:07.151Z,6.83
2018-07-13T21:31:37.343Z,8.53
2018-07-13T21:34:06.764Z,4.57
2018-07-13T21:36:36.190Z,7.93
2018-07-13T21:39:06.371Z,7.67
2018-07-13T21:41:36.811Z,6.93
2018-07-13T21:44:06.371Z,8.13
2018-07-13T21:46:35.907Z,6.47
2018-07-13T21:49:05.511Z,6.67
2018-07-13T21:51:35.298Z,7.33
2018-07-13T21:54:04.430Z,7.30
2018-07-13T21:56:33.785Z,9.13
2018-07-13T21:59:03.573Z,6.33
2018-07-13T22:01:33.477Z,11.93
2018-07-13T22:04:04.427Z,7.03
2018-07-13T22:06:36.487Z,7.87
2018-07-13T22:09:07.097Z,7.57
2018-07-13T22:11:37.129Z,9.00
2018-07-13T22:14:06.565Z,5.77
2018-07-13T22:16:35.887Z,5.53
2018-07-13T22:19:05.175Z,6.33
2018-07-13T22:21:34.293Z,5.83
2018-07-13T22:24:03.413Z,13.23
2018-07-13T22:26:33.397Z,6.70
2018-07-13T22:29:03.514Z,5.33
2018-07-13T22:31:32.601Z,5.60
2018-07-13T22:34:01.673Z,6.13
2018-07-13T22:36:30.752Z,6.10
2018-07-13T22:38:59.889Z,8.57
2018-07-13T22:41:28.929Z,6.67
2018-07-13T22:43:58.030Z,7.57
2018-07-13T22:46:27.195Z,7.13
2018-07-13T22:48:56.305Z,11.90
2018-07-13T22:51:25.369Z,6.50
2018-07-13T22:53:54.408Z,7.07
2018-07-13T22:56:23.507Z,6.67
2018-07-13T22:58:52.595Z,5.20
2018-07-13T23:01:21.721Z,7.37
2018-07-13T23:03:50.840Z,6.23
2018-07-13T23:06:19.918Z,9.63
2018-07-13T23:08:49.052Z,9.90
2018-07-13T23:11:18.165Z,6.87
2018-07-13T23:13:47.244Z,7.93
2018-07-13T23:16:16.342Z,7.57
2018-07-13T23:18:45.410Z,7.00
2018-07-13T23:21:14.490Z,10.80
2018-07-13T23:23:43.642Z,8.53
2018-07-13T23:26:12.721Z,5.80
2018-07-13T23:28:41.843Z,10.43
2018-07-13T23:31:10.912Z,7.87
2018-07-13T23:33:40.140Z,6.37
2018-07-13T23:36:09.235Z,5.70
2018-07-13T23:38:38.306Z,6.63
2018-07-13T23:41:07.428Z,7.50
2018-07-13T23:43:36.491Z,8.20
2018-07-13T23:46:05.557Z,7.67
2018-07-13T23:48:34.645Z,5.67
2018-07-13T23:51:03.704Z,5.37
2018-07-13T23:53:32.806Z,7.23
2018-07-13T23:56:01.862Z,9.67
2018-07-13T23:58:31.549Z,6.40
